PTCMS SBTE-SBPS
Flight info
| Callsign | PTCMS |
|---|---|
| Flight time | N/A |
| Altitude | FL360 |
| Route | ILSOL OPMET OGVAL URUVA DENDE |
| Aircraft | A320/M-SDE3FGHIRWY/LB1 |
Departure
| Time | 2026-05-07 02:59 |
|---|---|
| Airport | Senador Petrônio Portela Airport (SBTE) |
Arrival
| Time | N/A |
|---|---|
| Airport | Porto Seguro International Airport (SBPS) |
| Time | Latitude | Longitude | Altitude | Speed | Heading |
|---|---|---|---|---|---|
| 2026-05-07 02:47 | -5.06414 | -42.82166 | 215 ft | 0 kts | 120° |
| 2026-05-07 02:50 | -5.06411 | -42.82172 | 221 ft | 2 kts | 91° |
| 2026-05-07 02:50 | -5.06415 | -42.82184 | 215 ft | 2 kts | 14° |
| 2026-05-07 02:51 | -5.06421 | -42.82186 | 215 ft | 0 kts | 340° |
| 2026-05-07 02:54 | -5.06375 | -42.82234 | 216 ft | 25 kts | 278° |
| 2026-05-07 02:54 | -5.06325 | -42.82341 | 217 ft | 11 kts | 22° |
| 2026-05-07 02:54 | -5.06253 | -42.82337 | 219 ft | 10 kts | 349° |
| 2026-05-07 02:55 | -5.06145 | -42.82356 | 221 ft | 24 kts | 350° |
| 2026-05-07 02:55 | -5.05958 | -42.82378 | 215 ft | 30 kts | 354° |
| 2026-05-07 02:55 | -5.05730 | -42.82405 | 215 ft | 36 kts | 353° |
| 2026-05-07 02:55 | -5.05466 | -42.82434 | 215 ft | 40 kts | 355° |
| 2026-05-07 02:56 | -5.05204 | -42.82457 | 217 ft | 30 kts | 356° |
| 2026-05-07 02:56 | -5.05115 | -42.82462 | 221 ft | 9 kts | 6° |
| 2026-05-07 02:56 | -5.05059 | -42.82440 | 218 ft | 8 kts | 16° |
| 2026-05-07 02:56 | -5.05030 | -42.82461 | 218 ft | 2 kts | 258° |
| 2026-05-07 02:57 | -5.05054 | -42.82469 | 219 ft | 6 kts | 188° |
| 2026-05-07 02:57 | -5.05092 | -42.82469 | 222 ft | 0 kts | 175° |
| 2026-05-07 02:58 | -5.05106 | -42.82468 | 214 ft | 10 kts | 175° |
| 2026-05-07 02:58 | -5.05426 | -42.82435 | 220 ft | 89 kts | 173° |
| 2026-05-07 02:59 | -5.06300 | -42.82343 | 225 ft | 159 kts | 175° |
| 2026-05-07 02:59 | -5.07442 | -42.82225 | 811 ft | 168 kts | 175° |
| 2026-05-07 02:59 | -5.08632 | -42.82105 | 1513 ft | 178 kts | 176° |
| 2026-05-07 02:59 | -5.09902 | -42.81955 | 2215 ft | 186 kts | 173° |
| 2026-05-07 03:00 | -5.11176 | -42.81740 | 2831 ft | 187 kts | 173° |
| 2026-05-07 03:00 | -5.12476 | -42.81555 | 3327 ft | 195 kts | 178° |
| 2026-05-07 03:00 | -5.13874 | -42.81459 | 3738 ft | 210 kts | 175° |
| 2026-05-07 03:00 | -5.15374 | -42.81274 | 4229 ft | 224 kts | 175° |
| 2026-05-07 03:01 | -5.16969 | -42.81085 | 4704 ft | 240 kts | 175° |
| 2026-05-07 03:01 | -5.18683 | -42.80885 | 5195 ft | 257 kts | 175° |
| 2026-05-07 03:01 | -5.20495 | -42.80672 | 5863 ft | 266 kts | 175° |
| 2026-05-07 03:01 | -5.22338 | -42.80453 | 6668 ft | 269 kts | 175° |
| 2026-05-07 03:02 | -5.24203 | -42.80228 | 7464 ft | 272 kts | 175° |
| 2026-05-07 03:02 | -5.26085 | -42.80001 | 8246 ft | 275 kts | 175° |
| 2026-05-07 03:02 | -5.27992 | -42.79769 | 9018 ft | 278 kts | 175° |
| 2026-05-07 03:02 | -5.29920 | -42.79535 | 9761 ft | 281 kts | 175° |
| 2026-05-07 03:03 | -5.31883 | -42.79298 | 10340 ft | 292 kts | 175° |
| 2026-05-07 03:03 | -5.33949 | -42.79050 | 10716 ft | 308 kts | 175° |
| 2026-05-07 03:03 | -5.36130 | -42.78789 | 11065 ft | 325 kts | 175° |
| 2026-05-07 03:03 | -5.38412 | -42.78517 | 11557 ft | 335 kts | 175° |
| 2026-05-07 03:04 | -5.40730 | -42.78238 | 12224 ft | 338 kts | 175° |
| 2026-05-07 03:04 | -5.43077 | -42.77955 | 12905 ft | 341 kts | 175° |
| 2026-05-07 03:04 | -5.45436 | -42.77668 | 13553 ft | 344 kts | 175° |
| 2026-05-07 03:04 | -5.47821 | -42.77377 | 14184 ft | 348 kts | 175° |
| 2026-05-07 03:05 | -5.50230 | -42.77084 | 14800 ft | 351 kts | 175° |
| 2026-05-07 03:05 | -5.52656 | -42.76791 | 15396 ft | 354 kts | 175° |
| 2026-05-07 03:05 | -5.55108 | -42.76496 | 15994 ft | 357 kts | 176° |
| 2026-05-07 03:05 | -5.57577 | -42.76202 | 16565 ft | 360 kts | 176° |
| 2026-05-07 03:06 | -5.60067 | -42.75904 | 17126 ft | 363 kts | 176° |
| 2026-05-07 03:06 | -5.62578 | -42.75602 | 17680 ft | 366 kts | 176° |
| 2026-05-07 03:06 | -5.65104 | -42.75296 | 18218 ft | 369 kts | 176° |
| 2026-05-07 03:06 | -5.67652 | -42.74987 | 18751 ft | 372 kts | 176° |
| 2026-05-07 03:07 | -5.70230 | -42.74676 | 19279 ft | 374 kts | 176° |
| 2026-05-07 03:07 | -5.72816 | -42.74365 | 19794 ft | 377 kts | 176° |
| 2026-05-07 03:07 | -5.75430 | -42.74049 | 20316 ft | 380 kts | 176° |
| 2026-05-07 03:07 | -5.78061 | -42.73729 | 20819 ft | 383 kts | 176° |
| 2026-05-07 03:08 | -5.80710 | -42.73406 | 21308 ft | 386 kts | 176° |
| 2026-05-07 03:08 | -5.83380 | -42.73085 | 21790 ft | 388 kts | 176° |
| 2026-05-07 03:08 | -5.86066 | -42.72764 | 22254 ft | 391 kts | 176° |
| 2026-05-07 03:08 | -5.88768 | -42.72440 | 22703 ft | 394 kts | 176° |
| 2026-05-07 03:09 | -5.91496 | -42.72112 | 23138 ft | 396 kts | 176° |
| 2026-05-07 03:09 | -5.94238 | -42.71781 | 23556 ft | 399 kts | 176° |
| 2026-05-07 03:09 | -5.96995 | -42.71446 | 23958 ft | 401 kts | 176° |
| 2026-05-07 03:09 | -5.99769 | -42.71107 | 24353 ft | 404 kts | 176° |
| 2026-05-07 03:10 | -6.02559 | -42.70767 | 24729 ft | 406 kts | 176° |
| 2026-05-07 03:10 | -6.05362 | -42.70424 | 25094 ft | 408 kts | 176° |
| 2026-05-07 03:10 | -6.08185 | -42.70080 | 25448 ft | 410 kts | 176° |
| 2026-05-07 03:10 | -6.11019 | -42.69736 | 25796 ft | 412 kts | 176° |
| 2026-05-07 03:11 | -6.13867 | -42.69393 | 26137 ft | 414 kts | 176° |
| 2026-05-07 03:11 | -6.16735 | -42.69050 | 26469 ft | 416 kts | 176° |
| 2026-05-07 03:11 | -6.19615 | -42.68705 | 26792 ft | 419 kts | 176° |
| 2026-05-07 03:11 | -6.22503 | -42.68357 | 27098 ft | 421 kts | 176° |
| 2026-05-07 03:12 | -6.25412 | -42.68001 | 27416 ft | 423 kts | 176° |
| 2026-05-07 03:12 | -6.28333 | -42.67645 | 27711 ft | 424 kts | 176° |
| 2026-05-07 03:12 | -6.31258 | -42.67288 | 28014 ft | 426 kts | 176° |
| 2026-05-07 03:12 | -6.34210 | -42.66930 | 28300 ft | 428 kts | 176° |
| 2026-05-07 03:13 | -6.37149 | -42.66406 | 28582 ft | 433 kts | 169° |
| 2026-05-07 03:13 | -6.40035 | -42.65522 | 28842 ft | 436 kts | 166° |
| 2026-05-07 03:13 | -6.42930 | -42.64590 | 29098 ft | 438 kts | 166° |
| 2026-05-07 03:13 | -6.45832 | -42.63660 | 29353 ft | 440 kts | 166° |
| 2026-05-07 03:14 | -6.48751 | -42.62726 | 29590 ft | 442 kts | 166° |
| 2026-05-07 03:14 | -6.51675 | -42.61793 | 29815 ft | 443 kts | 166° |
| 2026-05-07 03:14 | -6.57565 | -42.59913 | 30255 ft | 446 kts | 166° |
| 2026-05-07 03:15 | -6.60518 | -42.58969 | 30476 ft | 448 kts | 166° |
| 2026-05-07 03:15 | -6.63485 | -42.58017 | 30680 ft | 449 kts | 166° |
| 2026-05-07 03:15 | -6.66451 | -42.57062 | 30939 ft | 448 kts | 166° |
| 2026-05-07 03:15 | -6.69417 | -42.56107 | 31233 ft | 447 kts | 166° |
| 2026-05-07 03:16 | -6.72371 | -42.55158 | 31511 ft | 447 kts | 166° |
| 2026-05-07 03:16 | -6.75322 | -42.54215 | 31784 ft | 446 kts | 166° |
| 2026-05-07 03:16 | -6.78273 | -42.53274 | 32046 ft | 445 kts | 166° |
| 2026-05-07 03:16 | -6.81221 | -42.52335 | 32311 ft | 445 kts | 166° |
| 2026-05-07 03:17 | -6.84167 | -42.51394 | 32570 ft | 444 kts | 166° |
| 2026-05-07 03:17 | -6.87107 | -42.50452 | 32824 ft | 444 kts | 166° |
| 2026-05-07 03:17 | -6.90039 | -42.49512 | 33075 ft | 443 kts | 166° |
| 2026-05-07 03:17 | -6.92973 | -42.48573 | 33326 ft | 443 kts | 166° |
| 2026-05-07 03:18 | -6.95901 | -42.47634 | 33574 ft | 442 kts | 166° |
| 2026-05-07 03:18 | -6.98827 | -42.46696 | 33821 ft | 442 kts | 166° |
| 2026-05-07 03:18 | -7.01749 | -42.45761 | 34063 ft | 441 kts | 166° |
| 2026-05-07 03:18 | -7.04664 | -42.44827 | 34302 ft | 441 kts | 166° |
| 2026-05-07 03:19 | -7.07582 | -42.43890 | 34541 ft | 440 kts | 166° |
| 2026-05-07 03:19 | -7.10490 | -42.42953 | 34766 ft | 440 kts | 166° |
| 2026-05-07 03:19 | -7.13399 | -42.42017 | 34984 ft | 439 kts | 166° |
| 2026-05-07 03:19 | -7.16301 | -42.41085 | 35196 ft | 439 kts | 166° |
| 2026-05-07 03:20 | -7.19204 | -42.40153 | 35395 ft | 438 kts | 166° |
| 2026-05-07 03:20 | -7.22106 | -42.39228 | 35588 ft | 438 kts | 166° |
| 2026-05-07 03:20 | -7.25002 | -42.38306 | 35763 ft | 438 kts | 166° |
| 2026-05-07 03:21 | -7.30783 | -42.36457 | 35838 ft | 435 kts | 166° |
| 2026-05-07 03:21 | -7.36538 | -42.34611 | 35839 ft | 435 kts | 166° |
| 2026-05-07 03:22 | -7.42298 | -42.32762 | 35839 ft | 435 kts | 166° |
| 2026-05-07 03:22 | -7.48058 | -42.30911 | 35839 ft | 435 kts | 166° |
| 2026-05-07 03:23 | -7.53818 | -42.29053 | 35840 ft | 436 kts | 166° |
| 2026-05-07 03:23 | -7.59573 | -42.27201 | 35842 ft | 435 kts | 166° |
| 2026-05-07 03:24 | -7.65333 | -42.25344 | 35839 ft | 435 kts | 166° |
| 2026-05-07 03:24 | -7.71091 | -42.23498 | 35845 ft | 435 kts | 166° |
| 2026-05-07 03:25 | -7.76849 | -42.21645 | 35841 ft | 436 kts | 166° |
| 2026-05-07 03:25 | -7.82615 | -42.19785 | 35849 ft | 435 kts | 166° |
| 2026-05-07 03:26 | -7.88372 | -42.17936 | 35847 ft | 435 kts | 166° |
| 2026-05-07 03:26 | -7.94128 | -42.16091 | 35845 ft | 435 kts | 166° |
| 2026-05-07 03:27 | -7.99888 | -42.14244 | 35840 ft | 435 kts | 166° |
| 2026-05-07 03:27 | -8.05646 | -42.12392 | 35842 ft | 436 kts | 166° |
| 2026-05-07 03:28 | -8.11404 | -42.10532 | 35845 ft | 435 kts | 166° |
| 2026-05-07 03:28 | -8.17164 | -42.08671 | 35846 ft | 435 kts | 166° |
| 2026-05-07 03:29 | -8.22918 | -42.06817 | 35842 ft | 435 kts | 166° |
| 2026-05-07 03:29 | -8.28676 | -42.04958 | 35839 ft | 435 kts | 166° |
| 2026-05-07 03:30 | -8.34431 | -42.03100 | 35842 ft | 435 kts | 166° |
| 2026-05-07 03:30 | -8.40185 | -42.01238 | 35840 ft | 435 kts | 166° |
| 2026-05-07 03:31 | -8.45942 | -41.99379 | 35842 ft | 435 kts | 166° |
| 2026-05-07 03:31 | -8.51692 | -41.97529 | 35837 ft | 435 kts | 166° |
| 2026-05-07 03:32 | -8.57451 | -41.95671 | 35841 ft | 435 kts | 166° |
| 2026-05-07 03:32 | -8.63205 | -41.93809 | 35843 ft | 435 kts | 166° |
| 2026-05-07 03:33 | -8.68959 | -41.91949 | 35842 ft | 435 kts | 166° |
| 2026-05-07 03:33 | -8.74716 | -41.90093 | 35838 ft | 435 kts | 166° |
| 2026-05-07 03:34 | -8.80470 | -41.88235 | 35842 ft | 435 kts | 166° |
| 2026-05-07 03:34 | -8.86227 | -41.86373 | 35842 ft | 435 kts | 166° |
| 2026-05-07 03:35 | -8.91978 | -41.84505 | 35843 ft | 435 kts | 166° |
| 2026-05-07 03:35 | -8.97733 | -41.82638 | 35845 ft | 435 kts | 166° |
| 2026-05-07 03:36 | -9.03488 | -41.80777 | 35841 ft | 435 kts | 166° |
| 2026-05-07 03:36 | -9.09246 | -41.78911 | 35844 ft | 435 kts | 166° |
| 2026-05-07 03:37 | -9.15001 | -41.77053 | 35846 ft | 435 kts | 166° |
| 2026-05-07 03:37 | -9.20752 | -41.75193 | 35842 ft | 435 kts | 166° |
| 2026-05-07 03:38 | -9.26509 | -41.73325 | 35849 ft | 435 kts | 166° |
| 2026-05-07 03:38 | -9.32266 | -41.71456 | 35840 ft | 435 kts | 166° |
| 2026-05-07 03:39 | -9.38015 | -41.69587 | 35847 ft | 435 kts | 166° |
| 2026-05-07 03:39 | -9.43775 | -41.67717 | 35847 ft | 435 kts | 166° |
| 2026-05-07 03:40 | -9.49526 | -41.65854 | 35846 ft | 435 kts | 166° |
| 2026-05-07 03:40 | -9.55281 | -41.63990 | 35846 ft | 435 kts | 166° |
| 2026-05-07 03:41 | -9.61034 | -41.62112 | 35848 ft | 435 kts | 166° |
| 2026-05-07 03:41 | -9.66786 | -41.60241 | 35846 ft | 435 kts | 166° |
| 2026-05-07 03:42 | -9.72542 | -41.58369 | 35847 ft | 435 kts | 166° |
| 2026-05-07 03:42 | -9.78294 | -41.56499 | 35843 ft | 435 kts | 166° |
| 2026-05-07 03:43 | -9.84028 | -41.54564 | 35849 ft | 436 kts | 163° |
| 2026-05-07 03:43 | -9.89672 | -41.52297 | 35845 ft | 438 kts | 161° |
| 2026-05-07 03:44 | -9.95275 | -41.49911 | 35847 ft | 438 kts | 161° |
| 2026-05-07 03:44 | -10.00896 | -41.47574 | 35847 ft | 437 kts | 162° |
| 2026-05-07 03:45 | -10.06536 | -41.45295 | 35848 ft | 437 kts | 162° |
| 2026-05-07 03:45 | -10.12181 | -41.43028 | 35849 ft | 437 kts | 162° |
| 2026-05-07 03:46 | -10.17807 | -41.40746 | 35847 ft | 437 kts | 162° |
| 2026-05-07 03:46 | -10.23449 | -41.38454 | 35847 ft | 437 kts | 162° |
| 2026-05-07 03:47 | -10.29082 | -41.36166 | 35850 ft | 437 kts | 162° |
| 2026-05-07 03:47 | -10.34719 | -41.33876 | 35846 ft | 437 kts | 162° |
| 2026-05-07 03:48 | -10.40354 | -41.31587 | 35851 ft | 437 kts | 162° |
| 2026-05-07 03:48 | -10.45990 | -41.29296 | 35855 ft | 437 kts | 162° |
| 2026-05-07 03:49 | -10.51628 | -41.27005 | 35849 ft | 437 kts | 162° |
| 2026-05-07 03:49 | -10.57259 | -41.24717 | 35853 ft | 437 kts | 162° |
| 2026-05-07 03:50 | -10.62896 | -41.22427 | 35854 ft | 437 kts | 162° |
| 2026-05-07 03:50 | -10.68534 | -41.20130 | 35848 ft | 437 kts | 162° |
| 2026-05-07 03:51 | -10.74167 | -41.17829 | 35854 ft | 437 kts | 162° |
| 2026-05-07 03:51 | -10.79799 | -41.15538 | 35856 ft | 437 kts | 162° |
| 2026-05-07 03:52 | -10.85433 | -41.13242 | 35850 ft | 437 kts | 162° |
| 2026-05-07 03:52 | -10.91065 | -41.10944 | 35852 ft | 437 kts | 162° |
| 2026-05-07 03:53 | -10.96706 | -41.08648 | 35846 ft | 437 kts | 162° |
| 2026-05-07 03:53 | -11.02339 | -41.06350 | 35853 ft | 437 kts | 162° |
| 2026-05-07 03:54 | -11.07972 | -41.04048 | 35854 ft | 437 kts | 162° |
| 2026-05-07 03:54 | -11.13620 | -41.01798 | 35849 ft | 436 kts | 164° |
| 2026-05-07 03:55 | -11.19333 | -40.99789 | 35855 ft | 435 kts | 165° |
| 2026-05-07 03:55 | -11.25068 | -40.97844 | 35844 ft | 435 kts | 165° |
| 2026-05-07 03:56 | -11.30795 | -40.95848 | 35856 ft | 436 kts | 165° |
| 2026-05-07 03:56 | -11.36500 | -40.93808 | 35856 ft | 436 kts | 164° |
| 2026-05-07 03:57 | -11.42216 | -40.91772 | 35857 ft | 436 kts | 165° |
| 2026-05-07 03:57 | -11.47931 | -40.89752 | 35852 ft | 436 kts | 165° |
| 2026-05-07 03:58 | -11.53643 | -40.87726 | 35847 ft | 436 kts | 165° |
| 2026-05-07 03:58 | -11.59361 | -40.85703 | 35851 ft | 436 kts | 165° |
| 2026-05-07 03:59 | -11.65073 | -40.83684 | 35848 ft | 436 kts | 165° |
| 2026-05-07 03:59 | -11.70786 | -40.81657 | 35852 ft | 436 kts | 165° |
| 2026-05-07 04:00 | -11.76502 | -40.79621 | 35855 ft | 436 kts | 165° |
| 2026-05-07 04:00 | -11.82213 | -40.77583 | 35853 ft | 436 kts | 165° |
| 2026-05-07 04:01 | -11.87923 | -40.75557 | 35850 ft | 436 kts | 165° |
| 2026-05-07 04:01 | -11.93635 | -40.73529 | 35855 ft | 436 kts | 165° |
| 2026-05-07 04:02 | -11.99351 | -40.71494 | 35856 ft | 436 kts | 165° |
| 2026-05-07 04:02 | -12.05064 | -40.69468 | 35855 ft | 436 kts | 165° |
| 2026-05-07 04:03 | -12.10778 | -40.67438 | 35853 ft | 436 kts | 165° |
| 2026-05-07 04:03 | -12.16482 | -40.65403 | 35851 ft | 436 kts | 165° |
| 2026-05-07 04:04 | -12.22192 | -40.63365 | 35853 ft | 436 kts | 165° |
| 2026-05-07 04:04 | -12.27909 | -40.61329 | 35849 ft | 436 kts | 165° |
| 2026-05-07 04:05 | -12.33621 | -40.59299 | 35855 ft | 436 kts | 165° |
| 2026-05-07 04:05 | -12.39330 | -40.57261 | 35856 ft | 436 kts | 165° |
| 2026-05-07 04:06 | -12.45040 | -40.55219 | 35859 ft | 436 kts | 165° |
| 2026-05-07 04:06 | -12.50752 | -40.53179 | 35851 ft | 436 kts | 165° |
| 2026-05-07 04:07 | -12.56458 | -40.51136 | 35855 ft | 436 kts | 165° |
| 2026-05-07 04:07 | -12.62169 | -40.49096 | 35858 ft | 436 kts | 165° |
| 2026-05-07 04:08 | -12.67883 | -40.47052 | 35857 ft | 436 kts | 165° |
| 2026-05-07 04:08 | -12.73594 | -40.45015 | 35860 ft | 435 kts | 165° |
| 2026-05-07 04:09 | -12.79300 | -40.42969 | 35857 ft | 436 kts | 164° |
| 2026-05-07 04:09 | -12.85006 | -40.40920 | 35862 ft | 436 kts | 165° |
| 2026-05-07 04:10 | -12.90722 | -40.38881 | 35854 ft | 436 kts | 165° |
| 2026-05-07 04:10 | -12.96427 | -40.36839 | 35855 ft | 436 kts | 165° |
| 2026-05-07 04:11 | -13.02133 | -40.34784 | 35857 ft | 436 kts | 164° |
| 2026-05-07 04:11 | -13.07838 | -40.32723 | 35852 ft | 436 kts | 164° |
| 2026-05-07 04:12 | -13.13544 | -40.30660 | 35855 ft | 436 kts | 164° |
| 2026-05-07 04:12 | -13.19249 | -40.28605 | 35856 ft | 436 kts | 164° |
| 2026-05-07 04:13 | -13.24954 | -40.26546 | 35859 ft | 436 kts | 164° |
| 2026-05-07 04:13 | -13.26864 | -40.25856 | 35864 ft | 436 kts | 164° |